createdAt,value
2018-06-21T00:00:48.419Z,955.48
2018-06-21T00:01:48.415Z,955.44
2018-06-21T00:02:48.410Z,955.44
2018-06-21T00:03:48.406Z,955.43
2018-06-21T00:04:48.402Z,955.4
2018-06-21T00:05:48.400Z,955.37
2018-06-21T00:06:48.395Z,955.39
2018-06-21T00:07:48.389Z,955.39
2018-06-21T00:08:48.387Z,955.36
2018-06-21T00:09:48.384Z,955.41
2018-06-21T00:10:48.379Z,955.38
2018-06-21T00:11:48.375Z,955.4
2018-06-21T00:12:48.372Z,955.37
2018-06-21T00:13:48.367Z,955.38
2018-06-21T00:14:48.364Z,955.36
2018-06-21T00:15:48.365Z,955.36
2018-06-21T00:16:48.355Z,955.37
2018-06-21T00:17:48.353Z,955.35
2018-06-21T00:18:48.350Z,955.37
2018-06-21T00:19:48.345Z,955.35
2018-06-21T00:20:48.341Z,955.36
2018-06-21T00:21:48.336Z,955.33
2018-06-21T00:22:48.335Z,955.35
2018-06-21T00:23:48.328Z,955.4
2018-06-21T00:24:48.326Z,955.38
2018-06-21T00:25:48.321Z,955.38
2018-06-21T00:26:48.317Z,955.37
2018-06-21T00:27:48.313Z,955.33
2018-06-21T00:28:48.310Z,955.33
2018-06-21T00:29:48.303Z,955.32
2018-06-21T00:30:48.301Z,955.36
2018-06-21T00:31:48.296Z,955.27
2018-06-21T00:32:48.292Z,955.32
2018-06-21T00:33:48.289Z,955.35
2018-06-21T00:34:48.284Z,955.31
2018-06-21T00:35:48.282Z,955.27
2018-06-21T00:36:48.277Z,955.28
2018-06-21T00:37:48.273Z,955.26
2018-06-21T00:38:48.269Z,955.21
2018-06-21T00:39:48.264Z,955.23
2018-06-21T00:40:48.260Z,955.23
2018-06-21T00:41:48.258Z,955.23
2018-06-21T00:42:48.252Z,955.23
2018-06-21T00:43:48.247Z,955.22
2018-06-21T00:44:48.250Z,955.22
2018-06-21T00:45:48.240Z,955.19
2018-06-21T00:46:48.241Z,955.2
2018-06-21T00:47:48.231Z,955.19
2018-06-21T00:48:48.228Z,955.17
2018-06-21T00:49:48.228Z,955.17
2018-06-21T00:50:48.218Z,955.16
2018-06-21T00:51:48.217Z,955.14
2018-06-21T00:52:48.211Z,955.18
2018-06-21T00:53:48.210Z,955.18
2018-06-21T00:54:48.202Z,955.14
2018-06-21T00:55:48.198Z,955.14
2018-06-21T00:56:48.194Z,955.15
2018-06-21T00:57:48.190Z,955.13
2018-06-21T00:58:48.185Z,955.17
2018-06-21T00:59:48.181Z,955.19
2018-06-21T01:00:48.178Z,955.19
2018-06-21T01:01:48.173Z,955.18
2018-06-21T01:02:48.168Z,955.21
2018-06-21T01:03:48.164Z,955.21
2018-06-21T01:04:48.161Z,955.18
2018-06-21T01:05:48.156Z,955.13
2018-06-21T01:06:48.153Z,955.16
2018-06-21T01:07:48.148Z,955.14
2018-06-21T01:08:48.142Z,955.13
2018-06-21T01:09:48.139Z,955.08
2018-06-21T01:10:48.135Z,955.09
2018-06-21T01:11:48.133Z,955.09
2018-06-21T01:12:48.125Z,955.11
2018-06-21T01:13:48.122Z,955.11
2018-06-21T01:14:48.118Z,955.09
2018-06-21T01:15:48.113Z,955.06
2018-06-21T01:16:48.108Z,955.07
2018-06-21T01:17:48.109Z,955.04
2018-06-21T01:18:48.101Z,955.03
2018-06-21T01:19:48.097Z,955.04
2018-06-21T01:20:48.092Z,955.02
2018-06-21T01:21:48.086Z,955.02
2018-06-21T01:22:48.083Z,954.98
2018-06-21T01:23:48.079Z,954.99
2018-06-21T01:24:48.074Z,954.99
2018-06-21T01:25:48.070Z,954.98
2018-06-21T01:26:48.067Z,954.93
2018-06-21T01:27:48.060Z,954.95
2018-06-21T01:28:48.056Z,954.92
2018-06-21T01:29:48.053Z,954.93
2018-06-21T01:30:48.047Z,954.92
2018-06-21T01:31:48.044Z,954.89
2018-06-21T01:32:48.038Z,954.85
2018-06-21T01:33:48.035Z,954.82
2018-06-21T01:34:48.029Z,954.85
2018-06-21T01:35:48.025Z,954.8
2018-06-21T01:36:48.024Z,954.81
2018-06-21T01:37:48.022Z,954.8
2018-06-21T01:38:48.012Z,954.78
2018-06-21T01:39:48.008Z,954.76
2018-06-21T01:40:48.005Z,954.72
2018-06-21T01:41:47.999Z,954.73
2018-06-21T01:42:47.994Z,954.76
2018-06-21T01:43:47.988Z,954.73
2018-06-21T01:44:47.985Z,954.72
2018-06-21T01:45:47.980Z,954.73
2018-06-21T01:46:47.976Z,954.71
2018-06-21T01:47:47.974Z,954.71
2018-06-21T01:48:47.967Z,954.72
2018-06-21T01:49:47.962Z,954.7
2018-06-21T01:50:47.956Z,954.66
2018-06-21T01:51:47.953Z,954.63
2018-06-21T01:52:47.948Z,954.62
2018-06-21T01:53:47.944Z,954.61
2018-06-21T01:54:47.946Z,954.6
2018-06-21T01:55:47.935Z,954.56
2018-06-21T01:56:47.931Z,954.55
2018-06-21T01:57:47.925Z,954.54
2018-06-21T01:58:47.922Z,954.54
2018-06-21T01:59:47.917Z,954.52
2018-06-21T02:00:47.911Z,954.53
2018-06-21T02:01:47.907Z,954.48
2018-06-21T02:02:47.901Z,954.44
2018-06-21T02:03:47.896Z,954.44
2018-06-21T02:04:47.893Z,954.43
2018-06-21T02:05:47.887Z,954.4
2018-06-21T02:06:47.883Z,954.4
2018-06-21T02:07:47.878Z,954.37
2018-06-21T02:08:47.873Z,954.36
2018-06-21T02:09:47.868Z,954.34
2018-06-21T02:10:47.864Z,954.32
2018-06-21T02:11:47.868Z,954.31
2018-06-21T02:12:47.854Z,954.35
2018-06-21T02:13:47.849Z,954.31
2018-06-21T02:14:47.847Z,954.31
2018-06-21T02:15:47.841Z,954.29
2018-06-21T02:16:47.835Z,954.28
2018-06-21T02:17:47.830Z,954.23
2018-06-21T02:18:47.824Z,954.25
2018-06-21T02:19:47.822Z,954.21
2018-06-21T02:20:47.815Z,954.19
2018-06-21T02:21:47.810Z,954.19
2018-06-21T02:22:47.805Z,954.12
2018-06-21T02:23:47.799Z,954.14
2018-06-21T02:24:47.796Z,954.12
2018-06-21T02:25:47.790Z,954.11
2018-06-21T02:26:47.787Z,954.11
2018-06-21T02:27:47.781Z,954.13
2018-06-21T02:28:47.774Z,954.12
2018-06-21T02:29:47.769Z,954.11
2018-06-21T02:30:47.767Z,954.08
2018-06-21T02:31:47.761Z,954.05
2018-06-21T02:32:47.757Z,954.07
2018-06-21T02:33:47.769Z,954.13
2018-06-21T02:34:47.747Z,954.15
2018-06-21T02:35:47.741Z,954.14
2018-06-21T02:36:47.739Z,954.11
2018-06-21T02:37:47.730Z,954.11
2018-06-21T02:38:47.725Z,954.13
2018-06-21T02:39:47.721Z,954.11
2018-06-21T02:40:47.717Z,954.08
2018-06-21T02:41:47.711Z,954.09
2018-06-21T02:42:47.706Z,954.06
2018-06-21T02:43:47.701Z,954.08
2018-06-21T02:44:47.695Z,954.07
2018-06-21T02:45:47.690Z,954.1
2018-06-21T02:46:47.686Z,954.12
2018-06-21T02:47:47.680Z,954.1
2018-06-21T02:48:47.687Z,954.11
2018-06-21T02:49:47.670Z,954.06
2018-06-21T02:50:47.667Z,954.06
2018-06-21T02:51:47.661Z,954.08
2018-06-21T02:52:47.658Z,954.08
2018-06-21T02:53:47.653Z,954.09
2018-06-21T02:54:47.647Z,954.06
2018-06-21T02:55:47.640Z,954.05
2018-06-21T02:56:47.635Z,954.02
2018-06-21T02:57:47.630Z,954.03
2018-06-21T02:58:47.630Z,954
2018-06-21T02:59:47.618Z,953.98
2018-06-21T03:00:47.615Z,953.96
2018-06-21T03:01:47.614Z,953.97
2018-06-21T03:02:47.603Z,953.97
2018-06-21T03:03:47.658Z,953.96
2018-06-21T03:04:47.595Z,953.96
2018-06-21T03:05:47.591Z,953.98
2018-06-21T03:06:47.584Z,953.94
2018-06-21T03:07:47.580Z,953.94
2018-06-21T03:08:47.574Z,953.96
2018-06-21T03:09:47.569Z,953.95
2018-06-21T03:10:47.565Z,953.92
2018-06-21T03:11:47.559Z,953.98
2018-06-21T03:12:47.553Z,953.91
2018-06-21T03:13:47.548Z,953.94
2018-06-21T03:14:47.542Z,953.89
2018-06-21T03:15:47.538Z,953.91
2018-06-21T03:16:47.532Z,953.91
2018-06-21T03:17:47.527Z,953.91
2018-06-21T03:18:47.529Z,953.94
2018-06-21T03:19:47.516Z,953.87
2018-06-21T03:20:47.510Z,953.89
2018-06-21T03:21:47.505Z,953.89
2018-06-21T03:22:47.501Z,953.86
2018-06-21T03:23:47.495Z,953.84
2018-06-21T03:24:47.489Z,953.83
2018-06-21T03:25:47.484Z,953.85
2018-06-21T03:26:47.480Z,953.82
2018-06-21T03:27:47.474Z,953.85
2018-06-21T03:28:47.469Z,953.79
2018-06-21T03:29:47.465Z,953.81
2018-06-21T03:30:47.460Z,953.84
2018-06-21T03:31:47.454Z,953.8
2018-06-21T03:32:47.449Z,953.78
2018-06-21T03:33:47.443Z,953.73
2018-06-21T03:34:47.438Z,953.74
2018-06-21T03:35:47.432Z,953.74
2018-06-21T03:36:47.428Z,953.74
2018-06-21T03:37:47.422Z,953.77
2018-06-21T03:38:47.416Z,953.75
2018-06-21T03:39:47.410Z,953.74
2018-06-21T03:40:47.407Z,953.75
2018-06-21T03:41:47.402Z,953.76
2018-06-21T03:42:47.396Z,953.76
2018-06-21T03:43:47.390Z,953.79
2018-06-21T03:44:47.387Z,953.75
2018-06-21T03:45:47.381Z,953.75
2018-06-21T03:46:47.375Z,953.71
2018-06-21T03:47:47.371Z,953.72
2018-06-21T03:48:47.365Z,953.72
2018-06-21T03:49:47.359Z,953.68
2018-06-21T03:50:47.354Z,953.67
2018-06-21T03:51:47.351Z,953.67
2018-06-21T03:52:47.344Z,953.67
2018-06-21T03:53:47.338Z,953.68
2018-06-21T03:54:47.334Z,953.66
2018-06-21T03:55:47.328Z,953.67
2018-06-21T03:56:47.323Z,953.66
2018-06-21T03:57:47.318Z,953.65
2018-06-21T03:58:47.311Z,953.67
2018-06-21T03:59:47.308Z,953.67
2018-06-21T04:00:47.302Z,953.63
2018-06-21T04:01:47.297Z,953.62
2018-06-21T04:02:47.291Z,953.65
2018-06-21T04:03:47.287Z,953.62
2018-06-21T04:04:47.279Z,953.63
2018-06-21T04:05:47.276Z,953.59
2018-06-21T04:06:47.272Z,953.66
2018-06-21T04:07:47.266Z,953.63
2018-06-21T04:08:47.261Z,953.61
2018-06-21T04:09:47.257Z,953.62
2018-06-21T04:10:47.252Z,953.59
2018-06-21T04:11:47.247Z,953.58
2018-06-21T04:12:47.240Z,953.55
2018-06-21T04:13:47.236Z,953.55
2018-06-21T04:14:47.231Z,953.56
2018-06-21T04:15:47.226Z,953.54
2018-06-21T04:16:47.220Z,953.56
2018-06-21T04:17:47.217Z,953.54
2018-06-21T04:18:47.213Z,953.56
2018-06-21T04:19:47.206Z,953.55
2018-06-21T04:20:47.201Z,953.55
2018-06-21T04:21:47.197Z,953.52
2018-06-21T04:22:47.192Z,953.56
2018-06-21T04:23:47.187Z,953.54
2018-06-21T04:24:47.182Z,953.53
2018-06-21T04:25:47.178Z,953.52
2018-06-21T04:26:47.175Z,953.55
2018-06-21T04:27:47.168Z,953.5
2018-06-21T04:28:47.166Z,953.49
2018-06-21T04:29:47.163Z,953.45
2018-06-21T04:30:47.155Z,953.47
2018-06-21T04:31:47.157Z,953.49
2018-06-21T04:32:47.146Z,953.51
2018-06-21T04:33:47.140Z,953.44
2018-06-21T04:34:47.136Z,953.45
2018-06-21T04:35:47.132Z,953.44
2018-06-21T04:36:47.131Z,953.48
2018-06-21T04:37:47.124Z,953.44
2018-06-21T04:38:47.119Z,953.4
2018-06-21T04:39:47.116Z,953.42
2018-06-21T04:40:47.111Z,953.44
2018-06-21T04:41:47.107Z,953.41
2018-06-21T04:42:47.102Z,953.41
2018-06-21T04:43:47.099Z,953.39
2018-06-21T04:44:47.093Z,953.34
2018-06-21T04:45:47.151Z,953.32
2018-06-21T04:46:47.087Z,953.3
2018-06-21T04:47:47.087Z,953.33
2018-06-21T04:48:47.080Z,953.32
2018-06-21T04:49:47.076Z,953.29
2018-06-21T04:50:47.072Z,953.29
2018-06-21T04:51:47.068Z,953.34
2018-06-21T04:52:47.065Z,953.26
2018-06-21T04:53:47.064Z,953.24
2018-06-21T04:54:47.061Z,953.27
2018-06-21T04:55:47.060Z,953.23
2018-06-21T04:56:47.051Z,953.29
2018-06-21T04:57:47.049Z,953.29
2018-06-21T04:58:47.045Z,953.24
2018-06-21T04:59:47.041Z,953.26
2018-06-21T05:00:47.036Z,953.24
2018-06-21T05:01:47.033Z,953.28
2018-06-21T05:02:47.031Z,953.3
2018-06-21T05:03:47.028Z,953.27
2018-06-21T05:04:47.025Z,953.25
2018-06-21T05:05:47.022Z,953.29
2018-06-21T05:06:47.019Z,953.25
2018-06-21T05:07:47.016Z,953.23
2018-06-21T05:08:47.013Z,953.22
2018-06-21T05:09:47.011Z,953.19
2018-06-21T05:10:47.008Z,953.16
2018-06-21T05:11:47.005Z,953.12
2018-06-21T05:12:47.003Z,953.14
2018-06-21T05:13:47.000Z,953.11
2018-06-21T05:14:46.998Z,953.06
2018-06-21T05:15:46.998Z,953.11
2018-06-21T05:16:46.993Z,953.06
2018-06-21T05:17:46.991Z,953.09
2018-06-21T05:18:46.988Z,953.02
2018-06-21T05:19:46.988Z,953.04
2018-06-21T05:20:46.984Z,953
2018-06-21T05:21:46.981Z,952.99
2018-06-21T05:22:46.979Z,952.99
2018-06-21T05:23:46.977Z,952.96
2018-06-21T05:24:46.973Z,952.93
2018-06-21T05:25:46.976Z,952.97
2018-06-21T05:26:46.971Z,952.95
2018-06-21T05:27:46.967Z,952.95
2018-06-21T05:28:46.966Z,952.93
2018-06-21T05:29:46.964Z,952.94
2018-06-21T05:30:46.961Z,952.92
2018-06-21T05:31:46.959Z,952.92
2018-06-21T05:32:46.958Z,952.88
2018-06-21T05:33:46.955Z,952.89
2018-06-21T05:34:46.958Z,952.88
2018-06-21T05:35:46.951Z,952.87
2018-06-21T05:36:46.951Z,952.91
2018-06-21T05:37:46.948Z,952.89
2018-06-21T05:38:46.946Z,952.87
2018-06-21T05:39:46.945Z,952.86
2018-06-21T05:40:46.942Z,952.84
2018-06-21T05:41:46.948Z,952.81
2018-06-21T05:42:46.941Z,952.81
2018-06-21T05:43:46.939Z,952.83
2018-06-21T05:44:46.939Z,952.85
2018-06-21T05:45:46.938Z,952.77
2018-06-21T05:46:46.936Z,952.78
2018-06-21T05:47:46.937Z,952.73
2018-06-21T05:48:46.935Z,952.74
2018-06-21T05:49:46.935Z,952.74
2018-06-21T05:50:46.938Z,952.69
2018-06-21T05:51:46.934Z,952.71
2018-06-21T05:52:46.934Z,952.68
2018-06-21T05:53:46.934Z,952.66
2018-06-21T05:54:46.932Z,952.66
2018-06-21T05:55:46.932Z,952.65
2018-06-21T05:56:47.051Z,952.66
2018-06-21T05:57:46.932Z,952.68
2018-06-21T05:58:46.932Z,952.68
2018-06-21T05:59:46.935Z,952.64
2018-06-21T06:00:46.932Z,952.68
2018-06-21T06:01:46.933Z,952.69
2018-06-21T06:02:46.933Z,952.67
2018-06-21T06:03:46.933Z,952.61
2018-06-21T06:04:46.935Z,952.58
2018-06-21T06:05:46.935Z,952.56
2018-06-21T06:06:46.934Z,952.56
2018-06-21T06:07:46.935Z,952.52
2018-06-21T06:08:46.935Z,952.51
2018-06-21T06:09:46.936Z,952.48
2018-06-21T06:10:46.936Z,952.51
2018-06-21T06:11:46.937Z,952.5
2018-06-21T06:12:46.938Z,952.48
2018-06-21T06:13:46.939Z,952.52
2018-06-21T06:14:46.940Z,952.47
2018-06-21T06:15:46.942Z,952.48
2018-06-21T06:16:46.942Z,952.46
2018-06-21T06:17:46.947Z,952.48
2018-06-21T06:18:46.945Z,952.5
2018-06-21T06:19:46.944Z,952.4
2018-06-21T06:20:46.945Z,952.44
2018-06-21T06:21:46.948Z,952.46
2018-06-21T06:22:46.949Z,952.38
2018-06-21T06:23:46.949Z,952.37
2018-06-21T06:24:46.951Z,952.35
2018-06-21T06:25:46.953Z,952.3
2018-06-21T06:26:46.955Z,952.36
2018-06-21T06:27:46.957Z,952.33
2018-06-21T06:28:46.991Z,952.31
2018-06-21T06:29:46.957Z,952.28
2018-06-21T06:30:46.967Z,952.3
2018-06-21T06:31:46.961Z,952.21
2018-06-21T06:32:46.961Z,952.21
2018-06-21T06:33:46.962Z,952.2
2018-06-21T06:34:46.991Z,952.17
2018-06-21T06:35:46.967Z,952.2
2018-06-21T06:36:46.969Z,952.22
2018-06-21T06:37:46.971Z,952.23
2018-06-21T06:38:46.975Z,952.22
2018-06-21T06:39:46.972Z,952.22
2018-06-21T06:40:46.976Z,952.2
2018-06-21T06:41:46.978Z,952.16
2018-06-21T06:42:46.979Z,952.2
2018-06-21T06:43:46.980Z,952.21
2018-06-21T06:44:46.985Z,952.17
2018-06-21T06:45:46.987Z,952.16
2018-06-21T06:46:46.989Z,952.22
2018-06-21T06:47:46.992Z,952.13
2018-06-21T06:48:46.993Z,952.14
2018-06-21T06:49:46.997Z,952.13
2018-06-21T06:50:47.001Z,952.09
2018-06-21T06:51:47.009Z,952.03
2018-06-21T06:52:47.008Z,952.08
2018-06-21T06:53:47.013Z,952.05
2018-06-21T06:54:47.124Z,952.07
2018-06-21T06:55:47.023Z,952.02
2018-06-21T06:56:47.028Z,952.05
2018-06-21T06:57:47.037Z,951.99
2018-06-21T06:58:47.038Z,951.96
2018-06-21T06:59:47.044Z,951.92
2018-06-21T07:00:47.053Z,951.94
2018-06-21T07:01:47.059Z,951.9
2018-06-21T07:02:47.071Z,951.88
2018-06-21T07:03:47.070Z,951.93
2018-06-21T07:04:47.081Z,951.94
2018-06-21T07:05:47.085Z,951.97
2018-06-21T07:06:47.093Z,951.99
2018-06-21T07:07:47.099Z,951.94
2018-06-21T07:08:47.109Z,951.9
2018-06-21T07:09:47.116Z,951.96
2018-06-21T07:10:47.122Z,951.97
2018-06-21T07:11:47.130Z,951.96
2018-06-21T07:12:47.139Z,951.93
2018-06-21T07:13:47.147Z,951.94
2018-06-21T07:14:47.155Z,951.95
2018-06-21T07:15:47.164Z,951.94
2018-06-21T07:16:47.172Z,951.94
2018-06-21T07:17:47.182Z,951.93
2018-06-21T07:18:47.197Z,951.92
2018-06-21T07:19:47.203Z,951.94
2018-06-21T07:20:47.208Z,951.94
2018-06-21T07:21:47.216Z,951.94
2018-06-21T07:22:47.226Z,951.88
2018-06-21T07:23:47.235Z,951.93
2018-06-21T07:24:47.245Z,951.81
2018-06-21T07:25:47.253Z,951.79
2018-06-21T07:26:47.264Z,951.8
2018-06-21T07:27:47.272Z,951.8
2018-06-21T07:28:47.284Z,951.75
2018-06-21T07:29:47.301Z,951.78
2018-06-21T07:30:47.304Z,951.77
2018-06-21T07:31:47.312Z,951.79
2018-06-21T07:32:47.321Z,951.8
2018-06-21T07:33:47.332Z,951.84
2018-06-21T07:34:47.343Z,951.84
2018-06-21T07:35:47.353Z,951.75
2018-06-21T07:36:47.368Z,951.74
2018-06-21T07:37:47.374Z,951.69
2018-06-21T07:38:47.450Z,951.62
2018-06-21T07:39:47.395Z,951.7
2018-06-21T07:40:47.405Z,951.62
2018-06-21T07:41:47.415Z,951.64
2018-06-21T07:42:47.427Z,951.68
2018-06-21T07:43:47.434Z,951.64
2018-06-21T07:44:47.446Z,951.62
2018-06-21T07:45:47.455Z,951.56
2018-06-21T07:46:47.482Z,951.48
2018-06-21T07:47:47.475Z,951.61
2018-06-21T07:48:47.484Z,951.58
2018-06-21T07:49:47.496Z,951.56
2018-06-21T07:50:47.510Z,951.72
2018-06-21T07:51:47.514Z,951.69
2018-06-21T07:52:47.522Z,951.61
2018-06-21T07:53:47.581Z,951.62
2018-06-21T07:54:47.539Z,951.66
2018-06-21T07:55:47.548Z,951.65
2018-06-21T07:56:47.558Z,951.66
2018-06-21T07:57:47.566Z,951.6
2018-06-21T07:58:47.574Z,951.53
2018-06-21T07:59:47.581Z,951.56
2018-06-21T08:00:47.591Z,951.54
2018-06-21T08:01:47.598Z,951.51
2018-06-21T08:02:47.610Z,951.43
2018-06-21T08:03:47.615Z,951.4
2018-06-21T08:04:47.622Z,951.39
2018-06-21T08:05:47.629Z,951.34
2018-06-21T08:06:47.638Z,951.46
2018-06-21T08:07:47.646Z,951.42
2018-06-21T08:08:47.653Z,951.39
2018-06-21T08:09:47.659Z,951.38
2018-06-21T08:10:47.669Z,951.32
2018-06-21T08:11:47.673Z,951.34
2018-06-21T08:12:47.709Z,951.29
2018-06-21T08:13:47.687Z,951.24
2018-06-21T08:14:47.695Z,951.31
2018-06-21T08:15:47.702Z,951.3
2018-06-21T08:16:47.709Z,951.27
2018-06-21T08:17:47.713Z,951.26
2018-06-21T08:18:47.718Z,951.2
2018-06-21T08:19:47.726Z,951.25
2018-06-21T08:20:47.732Z,951.17
2018-06-21T08:21:47.737Z,951.21
2018-06-21T08:22:47.743Z,951.23
2018-06-21T08:23:47.753Z,951.19
2018-06-21T08:24:47.759Z,951.29
2018-06-21T08:25:47.761Z,951.28
2018-06-21T08:26:47.794Z,951.2
2018-06-21T08:27:47.774Z,951.26
2018-06-21T08:28:47.778Z,951.23
2018-06-21T08:29:47.784Z,951.29
2018-06-21T08:30:47.790Z,951.26
2018-06-21T08:31:47.794Z,951.24
2018-06-21T08:32:47.800Z,951.28
2018-06-21T08:33:47.814Z,951.22
2018-06-21T08:34:47.811Z,951.32
2018-06-21T08:35:47.816Z,951.29
2018-06-21T08:36:47.821Z,951.16
2018-06-21T08:37:47.827Z,951.22
2018-06-21T08:38:47.876Z,951.22
2018-06-21T08:39:47.838Z,951.16
2018-06-21T08:40:47.843Z,951.24
2018-06-21T08:41:47.851Z,951.22
2018-06-21T08:42:47.855Z,951.29
2018-06-21T08:43:47.858Z,951.27
2018-06-21T08:44:47.863Z,951.18
2018-06-21T08:45:47.983Z,951.08
2018-06-21T08:46:47.872Z,951.15
2018-06-21T08:47:47.877Z,951.19
2018-06-21T08:48:47.883Z,951.32
2018-06-21T08:49:47.889Z,951.05
2018-06-21T08:50:47.893Z,951.13
2018-06-21T08:51:47.899Z,951.11
2018-06-21T08:52:47.904Z,951.07
2018-06-21T08:53:47.907Z,951.17
2018-06-21T08:54:47.913Z,951.08
2018-06-21T08:55:47.918Z,951.19
2018-06-21T08:56:47.922Z,951.2
2018-06-21T08:57:47.929Z,951.2
2018-06-21T08:58:47.935Z,951.12
2018-06-21T08:59:47.940Z,951.01
2018-06-21T09:00:47.944Z,951.06
2018-06-21T09:01:47.949Z,951.03
2018-06-21T09:02:47.954Z,951.05
2018-06-21T09:03:47.993Z,951.05
2018-06-21T09:04:47.961Z,951.02
2018-06-21T09:05:47.969Z,951.01
2018-06-21T09:06:47.973Z,951.07
2018-06-21T09:07:47.977Z,951.01
2018-06-21T09:08:47.981Z,951.03
2018-06-21T09:09:48.077Z,950.97
2018-06-21T09:10:47.992Z,950.94
2018-06-21T09:11:48.003Z,950.98
2018-06-21T09:12:48.000Z,950.99
2018-06-21T09:13:48.006Z,950.87
2018-06-21T09:14:48.010Z,951.02
2018-06-21T09:15:48.014Z,951.02
2018-06-21T09:16:48.018Z,950.96
2018-06-21T09:17:48.023Z,951.02
2018-06-21T09:18:48.027Z,951.01
2018-06-21T09:19:48.031Z,950.92
2018-06-21T09:20:48.035Z,950.94
2018-06-21T09:21:48.040Z,951.01
2018-06-21T09:22:48.043Z,950.86
2018-06-21T09:23:48.048Z,951.03
2018-06-21T09:24:48.052Z,950.95
2018-06-21T09:25:48.056Z,950.91
2018-06-21T09:26:48.063Z,950.88
2018-06-21T09:27:48.070Z,950.91
2018-06-21T09:28:48.069Z,950.92
2018-06-21T09:29:48.074Z,950.88
2018-06-21T09:30:48.078Z,950.97
2018-06-21T09:31:48.082Z,950.87
2018-06-21T09:32:48.088Z,950.95
2018-06-21T09:33:48.090Z,950.88
2018-06-21T09:34:48.094Z,950.91
2018-06-21T09:35:48.100Z,950.99
2018-06-21T09:36:48.104Z,950.89
2018-06-21T09:37:48.109Z,950.88
2018-06-21T09:38:48.114Z,950.85
2018-06-21T09:39:48.118Z,950.84
2018-06-21T09:40:48.122Z,950.83
2018-06-21T09:41:48.126Z,950.9
2018-06-21T09:42:48.131Z,950.86
2018-06-21T09:43:50.290Z,950.8
2018-06-21T09:44:48.141Z,950.76
2018-06-21T09:45:48.147Z,950.7
2018-06-21T09:46:48.150Z,950.77
2018-06-21T09:47:48.156Z,950.99
2018-06-21T09:48:48.161Z,950.87
2018-06-21T09:49:48.166Z,950.85
2018-06-21T09:50:48.171Z,950.83
2018-06-21T09:51:48.176Z,950.62
2018-06-21T09:52:48.181Z,950.77
2018-06-21T09:53:48.186Z,950.75
2018-06-21T09:54:48.191Z,950.89
2018-06-21T09:55:49.535Z,950.76
2018-06-21T09:56:48.537Z,950.84
2018-06-21T09:57:48.632Z,950.84
2018-06-21T09:58:49.202Z,950.84
2018-06-21T09:59:48.919Z,950.7
2018-06-21T10:00:48.304Z,950.76
2018-06-21T10:01:48.725Z,950.76
2018-06-21T10:02:49.075Z,950.77
2018-06-21T10:03:49.401Z,950.84
2018-06-21T10:04:48.666Z,950.77
2018-06-21T10:05:49.066Z,950.83
2018-06-21T10:06:48.780Z,950.73
2018-06-21T10:07:49.721Z,950.64
2018-06-21T10:08:48.620Z,950.69
2018-06-21T10:09:49.225Z,950.69
2018-06-21T10:10:49.482Z,950.72
2018-06-21T10:11:49.173Z,950.89
2018-06-21T10:12:48.347Z,950.63
2018-06-21T10:13:48.385Z,950.75
2018-06-21T10:14:48.820Z,950.62
2018-06-21T10:15:48.802Z,950.74
2018-06-21T10:16:48.767Z,950.69
2018-06-21T10:17:48.332Z,950.62
2018-06-21T10:18:48.896Z,950.65
2018-06-21T10:19:48.391Z,950.57
2018-06-21T10:20:48.558Z,950.64
2018-06-21T10:21:50.071Z,950.66
2018-06-21T10:22:48.953Z,950.58
2018-06-21T10:23:49.118Z,950.59
2018-06-21T10:24:49.530Z,950.62
2018-06-21T10:25:49.207Z,950.55
2018-06-21T10:26:50.226Z,950.56
2018-06-21T10:27:49.295Z,950.57
2018-06-21T10:28:48.557Z,950.58
2018-06-21T10:29:49.033Z,950.6
2018-06-21T10:30:48.535Z,950.7
2018-06-21T10:31:48.467Z,950.63
2018-06-21T10:32:48.485Z,950.52
2018-06-21T10:33:49.259Z,950.54
2018-06-21T10:34:48.873Z,950.7
2018-06-21T10:35:49.066Z,950.68
2018-06-21T10:36:48.419Z,950.62
2018-06-21T10:38:49.658Z,950.61
2018-06-21T10:39:48.503Z,950.63
2018-06-21T10:40:48.761Z,950.62
2018-06-21T10:41:48.778Z,950.58
2018-06-21T10:42:48.954Z,950.57
2018-06-21T10:44:49.560Z,950.57
2018-06-21T10:45:49.780Z,950.59
2018-06-21T10:46:48.754Z,950.61
2018-06-21T10:47:50.196Z,950.56
2018-06-21T10:48:48.744Z,950.65
2018-06-21T10:49:49.277Z,950.85
2018-06-21T10:50:48.769Z,950.7
2018-06-21T10:51:49.028Z,950.65
2018-06-21T23:30:43.854Z,957.14
2018-06-21T23:31:43.844Z,957.13
2018-06-21T23:32:43.831Z,957.08
2018-06-21T23:33:43.822Z,957.11
2018-06-21T23:34:43.808Z,957.06
2018-06-21T23:35:43.798Z,957.05
2018-06-21T23:36:43.794Z,957
2018-06-21T23:37:43.777Z,957.02
2018-06-21T23:38:43.767Z,957.05
2018-06-21T23:39:43.756Z,957.11
2018-06-21T23:40:43.791Z,957.15
2018-06-21T23:41:43.734Z,957.16
2018-06-21T23:42:43.723Z,957.13
2018-06-21T23:43:43.713Z,957.18
2018-06-21T23:44:43.703Z,957.18
2018-06-21T23:45:43.693Z,957.2
2018-06-21T23:46:43.683Z,957.17
2018-06-21T23:47:43.677Z,957.15
2018-06-21T23:48:43.664Z,957.14
2018-06-21T23:49:43.651Z,957.17
2018-06-21T23:50:43.644Z,957.21
2018-06-21T23:51:43.631Z,957.28
2018-06-21T23:53:43.612Z,957.33
2018-06-21T23:54:43.601Z,957.34
2018-06-21T23:55:43.594Z,957.33
2018-06-21T23:56:43.580Z,957.36
2018-06-21T23:57:43.570Z,957.37
2018-06-21T23:58:43.561Z,957.34
2018-06-21T23:59:43.551Z,957.33
